Station: Elliott

  Atmospheric Gas Attenuation - ITU Rec 676-11   --------------- db/100km ---------------
Date Time Temp RH % AH g/m3 Dew Point Wind Direction Speed kph Gust kph Barometer mB Rainfall Since 9am 24GHz 47GHz 76GHz 122GHz 134GHz 241GHz
06 09:00 23.7 48 10.27 12.2 19 1010.9 0 22.6 25.6 41.1 108.2 106.4 367.9
05 09:00 23 51 10.48 12.5 19 1012.3 0 23.1 26.1 42.3 111.4 110.1 380.7
04 09:00 22.8 45 9.14 10.5 13 1014.2 0 20.3 24.3 37.6 98.6 94.2 325.0
03 09:00 21 43 7.88 8 6 1015.7 0 17.7 22.9 33.9 88.8 81.4 280.0
02 09:00 18.6 33 5.25 2 9 1017.5 0 12.3 19.9 25.8 67.1 53.8 182.6
01 09:00 16.3 23 3.19 -4.8 30 1018.7 0 8.1 17.7 19.9 51.1 33.2 109.7
31 09:00 17.5 28 4.17 -1.1 15 1019.5 0 10.1 18.8 22.7 58.7 42.9 144.1
30 09:00 16.1 26 3.56 -3.4 39 1020.1 0 8.9 18.3 21.1 54.5 37.2 123.7
29 09:00 15.8 29 3.9 -2 19 1018.8 0 9.6 18.7 22.3 57.5 40.9 136.8
28 09:00 15.8 30 4.04 -1.6 22 1019.6 0 9.9 18.9 22.7 58.8 42.4 142.2
27 09:00 15 37 4.74 0.6 20 1019.8 0 11.4 20.0 25.3 65.6 50.6 170.8
26 09:00 17.2 36 5.27 2.2 41 1021 0 12.4 20.3 26.4 68.7 55.1 187.1
25 09:00 18.5 33 5.22 2.1 7 1018.7 0 12.3 19.9 25.8 67.0 53.6 181.8
24 09:00 18.9 31 5.02 1.5 20 1017.6 0 11.8 19.5 25.0 64.8 51.1 173.2
23 09:00 17 26 3.76 -2.4 44 1018.3 0 9.2 18.3 21.5 55.4 38.8 129.6
22 09:00 15.7 43 5.75 3.3 37 1019.7 0 13.5 21.3 28.5 74.3 61.6 209.7
21 09:00 16.9 31 4.46 -0.3 13 1019.3 0 10.7 19.3 23.8 61.6 46.3 156.1
20 09:00 18.4 19 2.99 -5.2 11 1017.4 0 7.6 17.0 18.8 48.2 30.3 99.9
19 09:00 17.9 27 4.12 -1.1 4 1016 0 10.0 18.5 22.3 57.7 42.0 141.1
18 09:00 17.1 26 3.78 -2.6 11 1016.4 0 9.3 18.2 21.5 55.4 38.9 129.9
17 09:00 14.6 34 4.25 -1.1 19 1016.9 0 10.3 19.4 23.7 61.3 45.2 152.0
16 09:00 16.3 30 4.16 -1 44 1019 0 10.1 19.0 23.0 59.4 43.4 145.8
15 09:00 14.8 30 3.8 -2.7 15 1018.1 0 9.4 18.8 22.2 57.3 40.3 134.5
14 09:00 12.5 37 4.07 -1.8 44 1020.9 0 10.0 19.7 23.8 61.5 44.6 149.3
13 09:00 14.2 38 4.64 0 52 1022.5 0 11.2 20.2 25.3 65.5 50.1 168.9
12 09:00 17.1 34 4.95 1.4 43 1020.8 0 11.7 19.9 25.4 65.9 51.6 174.8
11 09:00 20.8 34 6.16 4.7 39 1018.3 0 14.1 20.7 28.2 73.4 62.3 212.6
10 09:00 20.7 39 7.02 6.3 13 1018.5 0 15.9 21.9 31.1 81.3 72.0 246.7
09 09:00 16.7 31 4.41 -0.3 37 1018 0 10.6 19.2 23.6 61.2 45.9 154.4
08 09:00 15 36 4.62 0.3 19 1019.7 0 11.1 19.9 24.9 64.5 49.2 166.0
07 09:00 15 37 4.74 0.6 52 1021.2 0 11.4 20.1 25.3 65.7 50.7 171.0
06 09:00 14.4 32 3.96 -1.8 52 1022.6 0 9.7 19.2 23.0 59.3 42.4 141.9
05 09:00 16.5 33 4.63 0.1 41 1022.7 0 11.1 19.7 24.6 63.7 48.6 163.9
04 09:00 17.8 30 4.55 -0.1 48 1024 0 10.9 19.3 24.0 62.1 47.0 158.5
03 09:00 22.1 40 7.81 8.1 30 1020.7 0 17.5 22.7 33.4 87.4 79.9 274.5
02 09:00 22.6 54 10.85 12.9 4 1016.7 0 23.9 27.0 44.2 116.2 115.7 400.2
01 09:00 19.7 42 7.13 6.4 4 1016.3 0 16.2 22.2 31.8 83.1 74.0 253.7
30 09:00 18 35 5.38 2.3 11 1017.5 0 12.6 20.2 26.4 68.7 55.6 189.0
29 09:00 17.2 29 4.25 -0.9 15 1018.7 0 10.3 18.9 23.0 59.5 43.9 147.5
28 09:00 16.8 29 4.15 -1.2 15 1018.8 0 10.1 18.9 22.8 58.9 43.0 144.5
27 09:00 16.5 30 4.21 -1 19 1018.3 0 10.2 19.0 23.1 59.6 43.8 147.2
26 09:00 16 30 4.09 -1.6 48 1018.2 0 10.0 18.9 22.8 59.0 42.8 143.5
25 09:00 14 34 4.1 -1.4 15 1018.8 0 10.0 19.4 23.4 60.5 44.0 147.5
24 09:00 14.7 36 4.53 -0.2 22 1019.5 0 10.9 19.8 24.7 63.9 48.4 163.1
23 09:00 15 35 4.49 -0.1 41 1019.4 0 10.8 19.7 24.4 63.3 47.8 160.9
22 09:00 16 31 4.22 -0.8 48 1019.4 0 10.2 19.1 23.3 60.2 44.3 148.6
21 09:00 20.1 32 5.56 2.9 52 1017.9 0 12.9 20.0 26.4 68.6 56.2 191.1
20 09:00 22.5 43 8.59 9.4 15 1017.8 0 19.2 23.7 35.9 94.0 88.3 304.3
19 09:00 22.2 45 8.83 9.7 11 1019 0 19.7 24.1 36.9 96.8 91.6 315.7
18 09:00 18.8 29 4.67 0.3 19 1020.9 0 11.1 19.2 24.0 62.1 47.6 160.7
17 09:00 18.1 26 4.02 -1.8 41 1021.4 0 9.8 18.5 22.1 57.1 41.1 137.8
16 09:00 18.6 25 3.98 -1.6 48 1020.4 0 9.7 18.3 21.8 56.4 40.4 135.4
15 09:00 20 40 6.91 6 44 1019.8 0 15.7 21.9 31.0 81.1 71.4 244.7
14 09:00 21.4 33 6.19 4.5 15 1018.7 0 14.2 20.6 28.1 73.1 62.2 212.2
13 09:00 20.9 35 6.37 4.9 11 1016.5 0 14.6 20.9 28.8 75.0 64.4 220.1
12 09:00 1013.1
11 09:00 21.1 40 7.37 7.1 37 1017 0 16.7 22.2 32.1 84.0 75.5 259.2
10 09:00 20.4 40 7.08 6.6 41 1018.7 0 16.1 22.1 31.4 82.1 73.0 250.1
09 09:00 18.8 35 5.64 3 44 1019.6 0 13.1 20.5 27.1 70.6 58.1 197.6
08 09:00 18.9 35 5.67 3.1 48 1019.1 0 13.2 20.5 27.2 70.7 58.3 198.4
07 09:00 20 41 7.08 6.3 37 1016.4 0 16.1 22.1 31.5 82.3 73.2 250.8
06 09:00 18.1 36 5.56 2.8 22 1018.1 0 13.0 20.4 27.0 70.3 57.6 195.9
05 09:00 15.9 38 5.15 1.7 15 1020.1 0 12.2 20.4 26.4 68.6 54.6 185.1
04 09:00 16 34 4.63 0.2 44 1022.4 0 11.1 19.8 24.7 64.0 48.9 164.8
03 09:00 16.2 32 4.41 -0.5 26 1023.4 0 10.6 19.5 24.0 62.0 46.4 156.1
02 09:00 19.3 32 5.31 2.2 33 1022.5 0 12.4 20.0 26.0 67.4 54.2 184.1
01 09:00 23 44 9.04 10.3 6 1018.4 0 20.1 24.2 37.3 97.8 93.1 321.1
31 09:00 23.3 36 7.53 7.5 11 1018.2 0 16.9 22.0 31.9 83.3 75.4 258.9
30 09:00 21.9 30 5.79 3.5 22 1018.5 0 13.3 20.0 26.6 69.2 57.5 195.8
29 09:00 22 29 5.63 3.3 30 1019.6 0 13.0 19.8 26.1 67.8 55.7 189.7
28 09:00 21.8 43 8.25 8.9 19 1019.6 0 18.5 23.4 35.0 91.7 85.2 293.3
27 09:00 18.1 47 7.26 6.7 11 1018.8 0 16.6 22.9 33.0 86.2 77.2 264.8
26 09:00 15.9 51 6.91 5.8 15 1018.7 0 15.9 22.9 32.6 85.2 75.1 257.1
25 09:00 14.5 52 6.47 4.9 19 1019.7 0 15.0 22.6 31.6 82.4 71.1 243.0
24 09:00 13 53 6.01 3.7 15 1021.9 0 14.1 22.4 30.5 79.6 67.0 228.2
23 09:00 12.3 62 6.73 5.2 22 1021.9 0.4 15.7 23.7 33.5 87.5 76.6 261.6
22 09:00 15.5 57 7.53 7 19 1018.2 4 17.2 23.9 35.0 91.7 83.1 285.0
21 09:00 16.8 88 12.58 14.9 19 1018.5 4 27.9 31.9 55.1 145.2 149.4 516.9
20 09:00 24 38 8.27 8.8 15 1015.7 0 18.4 22.8 34.0 89.1 82.9 285.3
19 09:00 22.7 34 6.87 6 15 1015.2 0 15.6 21.1 29.7 77.7 68.4 234.3
18 09:00 22.4 28 5.56 3.1 30 1016.4 0 12.8 19.5 25.6 66.6 54.6 185.7
17 09:00 22.2 29 5.69 3.4 52 1017.2 0 13.1 19.7 26.1 68.0 56.1 191.1
16 09:00 21.8 30 5.76 3.6 46 1017.1 0 13.3 19.9 26.5 68.9 57.1 194.6
15 09:00 20.5 23 4.09 -1.4 48 1018.5 0 9.8 18.0 21.6 55.9 40.5 136.1
14 09:00 20.2 18 3.15 -4.7 46 1018.7 0 7.9 17.0 18.9 48.5 31.3 103.4
13 09:00 21.1 20 3.68 -2.6 30 1018.6 0 9.0 17.4 20.2 52.2 36.1 120.7
12 09:00 19.8 21 3.59 -2.9 26 1018.3 0 8.8 17.5 20.3 52.2 35.8 119.3
11 09:00 19.8 25 4.27 -0.8 37 1019.7 0 10.2 18.4 22.4 57.9 42.8 143.9
10 09:00 23 23 4.73 1.1 59 1018.8 0 11.1 18.4 22.9 59.4 45.7 154.7
09 09:00 25.3 59 13.81 16.8 6 1015.4 0 29.9 30.8 54.2 143.0 149.6 518.8
08 09:00 26 60 14.61 17.6 13 1015.6 0 31.6 31.9 57.0 150.4 158.9 551.6
07 09:00 22.5 47 9.39 10.8 9 1017.2 0 20.8 24.8 38.7 101.7 97.8 337.5
06 09:00 19.7 33 5.6 3.2 11 1017.9 0 13.0 20.1 26.6 69.3 56.9 193.6
05 09:00 19.8 28 4.78 0.7 44 1018.4 0 11.3 19.1 24.0 62.1 48.1 162.5
04 09:00 20 33 5.7 3.4 46 1019 0 13.2 20.3 26.9 70.0 57.8 196.9
03 09:00 18.8 28 4.51 -0.1 48 1018.5 0 10.8 18.9 23.4 60.6 45.8 154.3
02 09:00 17.5 30 4.47 -0.3 46 1018 0 10.7 19.1 23.6 61.2 46.1 155.2
01 09:00 18.1 28 4.33 -0.7 44 1018.9 0 10.4 18.8 23.0 59.6 44.3 149.0
30 09:00 28.7 38 10.74 13.2 22 1013.8 0 23.3 25.0 40.4 106.4 105.6 365.6
29 09:00 26.1 47 11.51 14 4 1013.2 0 25.1 26.8 44.6 117.4 118.4 410.1

Last Refresh: 07-Aug-2020 08:25:30

Most of the information presented on this site is sourced from the Bureau of Meteorology.  Copyright in all material sourced from the Bureau of Meteorology resides with the Commonwealth of Australia.